NCAR-RAP Real-Time Weather Data

Output produced by METARs form (17 January 2018  22:28 UTC)
found at http://weather.rap.ucar.edu/surface/
 
Conditions at: KBKV observed 17 January 2018  21:53 UTC
Temperature: 8.9°C (48°F)
Dewpoint: 4.4°C (40°F) [RH = 73%]
Pressure (altimeter): 30.29 inches Hg (1025.8 mb)
[Sea-level pressure: 1025.5 mb]
Winds: from the WNW (290 degrees) at 17 MPH (15 knots; 7.8 m/s)
Visibility: 10 or more miles (16+ km)
Ceiling: 4900 feet AGL
Clouds: overcast cloud deck at 4900 feet AGL
Present Weather: no significant weather observed at this time
KBKV 172153Z 29015KT 10SM OVC049 09/04 A3029 RMK AO2 SLP255 T00890044

Conditions at: KBKV observed 17 January 2018  20:53 UTC
Temperature: 10.0°C (50°F)
Dewpoint: 5.0°C (41°F) [RH = 71%]
Pressure (altimeter): 30.28 inches Hg (1025.5 mb)
[Sea-level pressure: 1025.2 mb]
Winds: from the WNW (300 degrees) at 17 MPH (15 knots; 7.8 m/s)
gusting to 29 MPH (25 knots; 13.0 m/s)
Visibility: 10 or more miles (16+ km)
Ceiling: 4300 feet AGL
Clouds: overcast cloud deck at 4300 feet AGL
Present Weather: no significant weather observed at this time
KBKV 172053Z 30015G25KT 10SM OVC043 10/05 A3028 RMK AO2 SLP252 T01000050 53007

Conditions at: KBKV observed 17 January 2018  20:35 UTC
Temperature: 11.1°C (52°F)
Dewpoint: 5.0°C (41°F) [RH = 66%]
Pressure (altimeter): 30.28 inches Hg (1025.5 mb)
Winds: from the NW (320 degrees) at 17 MPH (15 knots; 7.8 m/s)
gusting to 28 MPH (24 knots; 12.5 m/s)
Visibility: 10 or more miles (16+ km)
Ceiling: 3900 feet AGL
Clouds: few clouds at 2000 feet AGL
overcast cloud deck at 3900 feet AGL
Present Weather: no significant weather observed at this time
KBKV 172035Z 32015G24KT 10SM FEW020 OVC039 11/05 A3028 RMK AO2 T01110050

Conditions at: KBKV observed 17 January 2018  20:28 UTC
Temperature: 11.1°C (52°F)
Dewpoint: 5.6°C (42°F) [RH = 69%]
Pressure (altimeter): 30.27 inches Hg (1025.1 mb)
Winds: from the WNW (300 degrees) at 17 MPH (15 knots; 7.8 m/s)
gusting to 28 MPH (24 knots; 12.5 m/s)
Visibility: 10 or more miles (16+ km)
Ceiling: 2000 feet AGL
Clouds: broken clouds at 2000 feet AGL
overcast cloud deck at 3700 feet AGL
Present Weather: no significant weather observed at this time
KBKV 172028Z 30015G24KT 10SM BKN020 OVC037 11/06 A3027 RMK AO2 T01110056

Conditions at: KBKV observed 17 January 2018  19:53 UTC
Temperature: 13.3°C (56°F)
Dewpoint: 5.6°C (42°F) [RH = 60%]
Pressure (altimeter): 30.27 inches Hg (1025.1 mb)
[Sea-level pressure: 1024.7 mb]
Winds: from the WNW (290 degrees) at 18 MPH (16 knots; 8.3 m/s)
gusting to 25 MPH (22 knots; 11.4 m/s)
Visibility: 10 or more miles (16+ km)
Ceiling: 3300 feet AGL
Clouds: overcast cloud deck at 3300 feet AGL
Present Weather: no significant weather observed at this time
KBKV 171953Z 29016G22KT 10SM OVC033 13/06 A3027 RMK AO2 SLP247 T01330056

Conditions at: KBKV observed 17 January 2018  19:24 UTC
Temperature: 15.0°C (59°F)
Dewpoint: 6.7°C (44°F) [RH = 58%]
Pressure (altimeter): 30.25 inches Hg (1024.5 mb)
Winds: from the WNW (290 degrees) at 15 MPH (13 knots; 6.8 m/s)
gusting to 23 MPH (20 knots; 10.4 m/s)
Visibility: 10 or more miles (16+ km)
Ceiling: 2700 feet AGL
Clouds: broken clouds at 2700 feet AGL
Present Weather: no significant weather observed at this time
KBKV 171924Z 29013G20KT 10SM BKN027 15/07 A3025 RMK AO2 T01500067

Conditions at: KBKV observed 17 January 2018  19:05 UTC
Temperature: 14.4°C (58°F)
Dewpoint: 6.7°C (44°F) [RH = 60%]
Pressure (altimeter): 30.26 inches Hg (1024.8 mb)
Winds: from the WNW (290 degrees) at 12 MPH (10 knots; 5.2 m/s)
Visibility: 10 or more miles (16+ km)
Ceiling: at least 12,000 feet AGL
Clouds: scattered clouds at 1600 feet AGL
scattered clouds at 2300 feet AGL
Present Weather: no significant weather observed at this time
KBKV 171905Z 29010KT 10SM SCT016 SCT023 14/07 A3026 RMK AO2 T01440067

Conditions at: KBKV observed 17 January 2018  18:53 UTC
Temperature: 13.3°C (56°F)
Dewpoint: 6.1°C (43°F) [RH = 62%]
Pressure (altimeter): 30.26 inches Hg (1024.8 mb)
[Sea-level pressure: 1024.6 mb]
Winds: from the NW (310 degrees) at 15 MPH (13 knots; 6.8 m/s)
Visibility: 10 or more miles (16+ km)
Ceiling: 1600 feet AGL
Clouds: broken clouds at 1600 feet AGL
Present Weather: no significant weather observed at this time
KBKV 171853Z 31013KT 10SM BKN016 13/06 A3026 RMK AO2 SLP246 T01330061

Conditions at: KBKV observed 17 January 2018  18:51 UTC
Temperature: 13.0°C (55°F)
Dewpoint: 6.0°C (43°F) [RH = 62%]
Pressure (altimeter): 30.26 inches Hg (1024.8 mb)
Winds: from the NW (320 degrees) at 14 MPH (12 knots; 6.2 m/s)
Visibility: 10 or more miles (16+ km)
Ceiling: 1600 feet AGL
Clouds: broken clouds at 1600 feet AGL
Present Weather: no significant weather observed at this time
KBKV 171851Z 32012KT 10SM BKN016 13/06 A3026 RMK AO2

Conditions at: KBKV observed 17 January 2018  18:13 UTC
Temperature: 12.8°C (55°F)
Dewpoint: 7.2°C (45°F) [RH = 69%]
Pressure (altimeter): 30.27 inches Hg (1025.1 mb)
Winds: from the WNW (300 degrees) at 21 MPH (18 knots; 9.4 m/s)
Visibility: 10 or more miles (16+ km)
Ceiling: 1400 feet AGL
Clouds: broken clouds at 1400 feet AGL
Present Weather: no significant weather observed at this time
KBKV 171813Z 30018KT 10SM BKN014 13/07 A3027 RMK AO2 T01280072

Conditions at: KBKV observed 17 January 2018  17:53 UTC
Temperature: 14.4°C (58°F)
Dewpoint: 7.8°C (46°F) [RH = 65%]
Pressure (altimeter): 30.27 inches Hg (1025.1 mb)
[Sea-level pressure: 1025.0 mb]
Winds: from the WNW (300 degrees) at 16 MPH (14 knots; 7.3 m/s)
Visibility: 10 or more miles (16+ km)
Ceiling: at least 12,000 feet AGL
Clouds: sky clear below 12,000 feet AGL
Present Weather: no significant weather observed at this time
KBKV 171753Z 30014KT 10SM CLR 14/08 A3027 RMK AO2 SLP250 T01440078 10194 20039 58007

Conditions at: KBKV observed 17 January 2018  16:53 UTC
Temperature: 18.3°C (65°F)
Dewpoint: 8.9°C (48°F) [RH = 54%]
Pressure (altimeter): 30.29 inches Hg (1025.8 mb)
[Sea-level pressure: 1025.6 mb]
Winds: from the WNW (290 degrees) at 16 MPH (14 knots; 7.3 m/s)
Visibility: 10 or more miles (16+ km)
Ceiling: at least 12,000 feet AGL
Clouds: sky clear below 12,000 feet AGL
Present Weather: no significant weather observed at this time
KBKV 171653Z 29014KT 10SM CLR 18/09 A3029 RMK AO2 SLP256 T01830089

Conditions at: KBKV observed 17 January 2018  15:53 UTC
Temperature: 18.3°C (65°F)
Dewpoint: 8.3°C (47°F) [RH = 52%]
Pressure (altimeter): 30.30 inches Hg (1026.2 mb)
[Sea-level pressure: 1026.0 mb]
Winds: from the WNW (300 degrees) at 10 MPH (9 knots; 4.7 m/s)
gusting to 17 MPH (15 knots; 7.8 m/s)
Visibility: 10 or more miles (16+ km)
Ceiling: at least 12,000 feet AGL
Clouds: sky clear below 12,000 feet AGL
Present Weather: no significant weather observed at this time
KBKV 171553Z 30009G15KT 10SM CLR 18/08 A3030 RMK AO2 SLP260 T01830083

Conditions at: KBKV observed 17 January 2018  14:53 UTC
Temperature: 13.9°C (57°F)
Dewpoint: 10.0°C (50°F) [RH = 77%]
Pressure (altimeter): 30.30 inches Hg (1026.2 mb)
[Sea-level pressure: 1025.8 mb]
Winds: calm
Visibility: 10 or more miles (16+ km)
Ceiling: at least 12,000 feet AGL
Clouds: sky clear below 12,000 feet AGL
Present Weather: no significant weather observed at this time
KBKV 171453Z 00000KT 10SM CLR 14/10 A3030 RMK AO2 SLP258 T01390100 53009

Conditions at: KBKV observed 17 January 2018  13:53 UTC
Temperature: 8.9°C (48°F)
Dewpoint: 8.3°C (47°F) [RH = 96%]
Pressure (altimeter): 30.28 inches Hg (1025.5 mb)
[Sea-level pressure: 1025.3 mb]
Winds: calm
Visibility: 10 or more miles (16+ km)
Ceiling: at least 12,000 feet AGL
Clouds: sky clear below 12,000 feet AGL
Present Weather: no significant weather observed at this time
KBKV 171353Z 00000KT 10SM CLR 09/08 A3028 RMK AO2 SLP253 T00890083

Conditions at: KBKV observed 17 January 2018  12:53 UTC
Temperature: 4.4°C (40°F)
Dewpoint: 3.9°C (39°F) [RH = 97%]
Pressure (altimeter): 30.27 inches Hg (1025.1 mb)
[Sea-level pressure: 1025.0 mb]
Winds: calm
Visibility: 10 or more miles (16+ km)
Ceiling: at least 12,000 feet AGL
Clouds: sky clear below 12,000 feet AGL
Present Weather: BR  (mist)
KBKV 171253Z 00000KT 10SM BR CLR 04/04 A3027 RMK AO2 SLP250 T00440039

Conditions at: KBKV observed 17 January 2018  11:53 UTC
Temperature: 3.9°C (39°F)
Dewpoint: 3.3°C (38°F) [RH = 96%]
Pressure (altimeter): 30.27 inches Hg (1025.1 mb)
[Sea-level pressure: 1024.9 mb]
Winds: calm
Visibility: 10 or more miles (16+ km)
Ceiling: 200 feet AGL
Clouds: overcast cloud deck at 200 feet AGL
Present Weather: no significant weather observed at this time
KBKV 171153Z 00000KT 10SM OVC002 04/03 A3027 RMK AO2 SLP249 T00390033 10094 20039 53003

Conditions at: KBKV observed 17 January 2018  10:53 UTC
Temperature: 5.0°C (41°F)
Dewpoint: 4.4°C (40°F) [RH = 96%]
Pressure (altimeter): 30.26 inches Hg (1024.8 mb)
[Sea-level pressure: 1024.6 mb]
Winds: calm
Visibility: 10 or more miles (16+ km)
Ceiling: 200 feet AGL
Clouds: overcast cloud deck at 200 feet AGL
Present Weather: automated observation with no human augmentation;
there may or may not be significant weather present at this time
KBKV 171053Z AUTO 00000KT 10SM OVC002 05/04 A3026 RMK AO2 SLP246 T00500044

Conditions at: KBKV observed 17 January 2018  09:53 UTC
Temperature: 4.4°C (40°F)
Dewpoint: 3.9°C (39°F) [RH = 97%]
Pressure (altimeter): 30.26 inches Hg (1024.8 mb)
[Sea-level pressure: 1024.5 mb]
Winds: from the W (280 degrees) at 3 MPH (3 knots; 1.6 m/s)
Visibility: 10 or more miles (16+ km)
Ceiling: 300 feet AGL
Clouds: broken clouds at 300 feet AGL
Present Weather: automated observation with no human augmentation;
there may or may not be significant weather present at this time
KBKV 170953Z AUTO 28003KT 10SM BKN003 04/04 A3026 RMK AO2 SLP245 T00440039

Conditions at: KBKV observed 17 January 2018  09:50 UTC
Temperature: 4.0°C (39°F)
Dewpoint: 4.0°C (39°F) [RH = 100%]
Pressure (altimeter): 30.26 inches Hg (1024.8 mb)
Winds: from the WNW (290 degrees) at 3 MPH (3 knots; 1.6 m/s)
Visibility: 10 or more miles (16+ km)
Ceiling: 300 feet AGL
Clouds: broken clouds at 300 feet AGL
Present Weather: automated observation with no human augmentation;
there may or may not be significant weather present at this time
KBKV 170950Z AUTO 29003KT 10SM BKN003 04/04 A3026 RMK AO2

Conditions at: KBKV observed 17 January 2018  08:53 UTC
Temperature: 4.4°C (40°F)
Dewpoint: 3.9°C (39°F) [RH = 97%]
Pressure (altimeter): 30.26 inches Hg (1024.8 mb)
[Sea-level pressure: 1024.5 mb]
Winds: calm
Visibility: 10 or more miles (16+ km)
Ceiling: at least 12,000 feet AGL
Clouds: few clouds at 400 feet AGL
Present Weather: automated observation with no human augmentation;
there may or may not be significant weather present at this time
KBKV 170853Z AUTO 00000KT 10SM FEW004 04/04 A3026 RMK AO2 SLP245 T00440039 56006

Conditions at: KBKV observed 17 January 2018  08:02 UTC
Temperature: 4.4°C (40°F)
Dewpoint: 3.9°C (39°F) [RH = 97%]
Pressure (altimeter): 30.26 inches Hg (1024.8 mb)
Winds: calm
Visibility: 10 or more miles (16+ km)
Ceiling: at least 12,000 feet AGL
Clouds: few clouds at 400 feet AGL
Present Weather: automated observation with no human augmentation;
there may or may not be significant weather present at this time
KBKV 170802Z AUTO 00000KT 10SM FEW004 04/04 A3026 RMK AO2 T00440039

Conditions at: KBKV observed 17 January 2018  07:53 UTC
Temperature: 5.0°C (41°F)
Dewpoint: 4.4°C (40°F) [RH = 96%]
Pressure (altimeter): 30.26 inches Hg (1024.8 mb)
[Sea-level pressure: 1024.5 mb]
Winds: calm
Visibility: 10 or more miles (16+ km)
Ceiling: at least 12,000 feet AGL
Clouds: sky clear below 12,000 feet AGL
Present Weather: automated observation with no human augmentation;
there may or may not be significant weather present at this time
KBKV 170753Z AUTO 00000KT 10SM CLR 05/04 A3026 RMK AO2 SLP245 T00500044

Conditions at: KBKV observed 17 January 2018  06:53 UTC
Temperature: 7.2°C (45°F)
Dewpoint: 6.1°C (43°F) [RH = 93%]
Pressure (altimeter): 30.27 inches Hg (1025.1 mb)
[Sea-level pressure: 1024.8 mb]
Winds: calm
Visibility: 10 or more miles (16+ km)
Ceiling: at least 12,000 feet AGL
Clouds: sky clear below 12,000 feet AGL
Present Weather: automated observation with no human augmentation;
there may or may not be significant weather present at this time
KBKV 170653Z AUTO 00000KT 10SM CLR 07/06 A3027 RMK AO2 SLP248 T00720061

Conditions at: KBKV observed 17 January 2018  05:53 UTC
Temperature: 7.2°C (45°F)
Dewpoint: 6.1°C (43°F) [RH = 93%]
Pressure (altimeter): 30.28 inches Hg (1025.5 mb)
[Sea-level pressure: 1025.1 mb]
Winds: calm
Visibility: 10 or more miles (16+ km)
Ceiling: at least 12,000 feet AGL
Clouds: sky clear below 12,000 feet AGL
Present Weather: automated observation with no human augmentation;
there may or may not be significant weather present at this time
KBKV 170553Z AUTO 00000KT 10SM CLR 07/06 A3028 RMK AO2 SLP251 T00720061 10128 20044 58009

Conditions at: KBKV observed 17 January 2018  04:53 UTC
Temperature: 7.8°C (46°F)
Dewpoint: 6.7°C (44°F) [RH = 93%]
Pressure (altimeter): 30.30 inches Hg (1026.2 mb)
[Sea-level pressure: 1025.8 mb]
Winds: calm
Visibility: 10 or more miles (16+ km)
Ceiling: at least 12,000 feet AGL
Clouds: sky clear below 12,000 feet AGL
Present Weather: automated observation with no human augmentation;
there may or may not be significant weather present at this time
KBKV 170453Z AUTO 00000KT 10SM CLR 08/07 A3030 RMK AO2 SLP258 T00780067 402280050

Conditions at: KBKV observed 17 January 2018  03:53 UTC
Temperature: 7.2°C (45°F)
Dewpoint: 6.1°C (43°F) [RH = 93%]
Pressure (altimeter): 30.31 inches Hg (1026.5 mb)
[Sea-level pressure: 1026.2 mb]
Winds: calm
Visibility: 10 or more miles (16+ km)
Ceiling: at least 12,000 feet AGL
Clouds: sky clear below 12,000 feet AGL
Present Weather: automated observation with no human augmentation;
there may or may not be significant weather present at this time
KBKV 170353Z AUTO 00000KT 10SM CLR 07/06 A3031 RMK AO2 SLP262 T00720061

Conditions at: KBKV observed 17 January 2018  02:53 UTC
Temperature: 8.3°C (47°F)
Dewpoint: 6.1°C (43°F) [RH = 86%]
Pressure (altimeter): 30.30 inches Hg (1026.2 mb)
[Sea-level pressure: 1026.0 mb]
Winds: calm
Visibility: 10 or more miles (16+ km)
Ceiling: at least 12,000 feet AGL
Clouds: sky clear below 12,000 feet AGL
Present Weather: no significant weather observed at this time
KBKV 170253Z 00000KT 10SM CLR 08/06 A3030 RMK AO2 SLP260 T00830061 51004

Conditions at: KBKV observed 17 January 2018  01:53 UTC
Temperature: 8.9°C (48°F)
Dewpoint: 6.7°C (44°F) [RH = 86%]
Pressure (altimeter): 30.30 inches Hg (1026.2 mb)
[Sea-level pressure: 1026.0 mb]
Winds: calm
Visibility: 10 or more miles (16+ km)
Ceiling: at least 12,000 feet AGL
Clouds: sky clear below 12,000 feet AGL
Present Weather: no significant weather observed at this time
KBKV 170153Z 00000KT 10SM CLR 09/07 A3030 RMK AO2 SLP260 T00890067

Conditions at: KBKV observed 17 January 2018  00:53 UTC
Temperature: 11.1°C (52°F)
Dewpoint: 7.2°C (45°F) [RH = 77%]
Pressure (altimeter): 30.30 inches Hg (1026.2 mb)
[Sea-level pressure: 1025.8 mb]
Winds: calm
Visibility: 10 or more miles (16+ km)
Ceiling: at least 12,000 feet AGL
Clouds: sky clear below 12,000 feet AGL
Present Weather: no significant weather observed at this time
KBKV 170053Z 00000KT 10SM CLR 11/07 A3030 RMK AO2 SLP258 T01110072

Conditions at: KBKV observed 16 January 2018  23:53 UTC
Temperature: 12.2°C (54°F)
Dewpoint: 6.1°C (43°F) [RH = 66%]
Pressure (altimeter): 30.29 inches Hg (1025.8 mb)
[Sea-level pressure: 1025.6 mb]
Winds: calm
Visibility: 10 or more miles (16+ km)
Ceiling: at least 12,000 feet AGL
Clouds: sky clear below 12,000 feet AGL
Present Weather: no significant weather observed at this time
KBKV 162353Z 00000KT 10SM CLR 12/06 A3029 RMK AO2 SLP256 T01220061 10228 20122 55000

Conditions at: KBKV observed 16 January 2018  22:53 UTC
Temperature: 17.8°C (64°F)
Dewpoint: 6.7°C (44°F) [RH = 48%]
Pressure (altimeter): 30.29 inches Hg (1025.8 mb)
[Sea-level pressure: 1025.4 mb]
Winds: from the N (10 degrees) at 5 MPH (4 knots; 2.1 m/s)
Visibility: 10 or more miles (16+ km)
Ceiling: at least 12,000 feet AGL
Clouds: sky clear below 12,000 feet AGL
Present Weather: no significant weather observed at this time
KBKV 162253Z 01004KT 10SM CLR 18/07 A3029 RMK AO2 SLP254 T01780067

Conditions at: KBKV observed 16 January 2018  21:53 UTC
Temperature: 21.1°C (70°F)
Dewpoint: 6.1°C (43°F) [RH = 38%]
Pressure (altimeter): 30.29 inches Hg (1025.8 mb)
[Sea-level pressure: 1025.7 mb]
Winds: from the NNE (20 degrees) at 7 MPH (6 knots; 3.1 m/s)
Visibility: 10 or more miles (16+ km)
Ceiling: at least 12,000 feet AGL
Clouds: sky clear below 12,000 feet AGL
Present Weather: no significant weather observed at this time
KBKV 162153Z 02006KT 10SM CLR 21/06 A3029 RMK AO2 SLP257 T02110061

Conditions at: KBKV observed 16 January 2018  20:53 UTC
Temperature: 22.2°C (72°F)
Dewpoint: 6.1°C (43°F) [RH = 35%]
Pressure (altimeter): 30.29 inches Hg (1025.8 mb)
[Sea-level pressure: 1025.6 mb]
Winds: from the NNE (30 degrees) at 6 MPH (5 knots; 2.6 m/s)
Visibility: 10 or more miles (16+ km)
Ceiling: 6000 feet AGL
Clouds: broken clouds at 6000 feet AGL
Present Weather: no significant weather observed at this time
KBKV 162053Z 03005KT 10SM BKN060 22/06 A3029 RMK AO2 SLP256 T02220061 56019

Conditions at: KBKV observed 16 January 2018  19:53 UTC
Temperature: 21.7°C (71°F)
Dewpoint: 6.1°C (43°F) [RH = 36%]
Pressure (altimeter): 30.30 inches Hg (1026.2 mb)
[Sea-level pressure: 1025.8 mb]
Winds: from the N (10 degrees) at 10 MPH (9 knots; 4.7 m/s)
Visibility: 10 or more miles (16+ km)
Ceiling: 6000 feet AGL
Clouds: broken clouds at 6000 feet AGL
Present Weather: no significant weather observed at this time
KBKV 161953Z 01009KT 10SM BKN060 22/06 A3030 RMK AO2 SLP258 T02170061

Conditions at: KBKV observed 16 January 2018  18:53 UTC
Temperature: 21.1°C (70°F)
Dewpoint: 6.7°C (44°F) [RH = 39%]
Pressure (altimeter): 30.32 inches Hg (1026.8 mb)
[Sea-level pressure: 1026.5 mb]
Winds: from the NE (50 degrees) at 8 MPH (7 knots; 3.6 m/s)
Visibility: 10 or more miles (16+ km)
Ceiling: 6000 feet AGL
Clouds: broken clouds at 6000 feet AGL
Present Weather: no significant weather observed at this time
KBKV 161853Z 05007KT 10SM BKN060 21/07 A3032 RMK AO2 SLP265 T02110067

Conditions at: KBKV observed 16 January 2018  17:53 UTC
Temperature: 21.1°C (70°F)
Dewpoint: 8.3°C (47°F) [RH = 44%]
Pressure (altimeter): 30.35 inches Hg (1027.9 mb)
[Sea-level pressure: 1027.5 mb]
Winds: from the NE (50 degrees) at 7 MPH (6 knots; 3.1 m/s)
Visibility: 10 or more miles (16+ km)
Ceiling: at least 12,000 feet AGL
Clouds: sky clear below 12,000 feet AGL
Present Weather: no significant weather observed at this time
KBKV 161753Z 05006KT 10SM CLR 21/08 A3035 RMK AO2 SLP275 T02110083 10211 20067 58020

Conditions at: KBKV observed 16 January 2018  16:53 UTC
Temperature: 19.4°C (67°F)
Dewpoint: 8.9°C (48°F) [RH = 51%]
Pressure (altimeter): 30.38 inches Hg (1028.9 mb)
[Sea-level pressure: 1028.6 mb]
Winds: from the ENE (60 degrees) at 8 MPH (7 knots; 3.6 m/s)
Visibility: 10 or more miles (16+ km)
Ceiling: at least 12,000 feet AGL
Clouds: sky clear below 12,000 feet AGL
Present Weather: no significant weather observed at this time
KBKV 161653Z 06007KT 10SM CLR 19/09 A3038 RMK AO2 SLP286 T01940089

Conditions at: KBKV observed 16 January 2018  15:53 UTC
Temperature: 16.7°C (62°F)
Dewpoint: 8.3°C (47°F) [RH = 58%]
Pressure (altimeter): 30.41 inches Hg (1029.9 mb)
[Sea-level pressure: 1029.5 mb]
Winds: from the ENE (70 degrees) at 6 MPH (5 knots; 2.6 m/s)
Visibility: 10 or more miles (16+ km)
Ceiling: at least 12,000 feet AGL
Clouds: sky clear below 12,000 feet AGL
Present Weather: no significant weather observed at this time
KBKV 161553Z 07005KT 10SM CLR 17/08 A3041 RMK AO2 SLP295 T01670083

Conditions at: KBKV observed 16 January 2018  14:53 UTC
Temperature: 13.9°C (57°F)
Dewpoint: 7.8°C (46°F) [RH = 67%]
Pressure (altimeter): 30.40 inches Hg (1029.5 mb)
[Sea-level pressure: 1029.4 mb]
Winds: from the NE (40 degrees) at 10 MPH (9 knots; 4.7 m/s)
Visibility: 10 or more miles (16+ km)
Ceiling: at least 12,000 feet AGL
Clouds: sky clear below 12,000 feet AGL
Present Weather: no significant weather observed at this time
KBKV 161453Z 04009KT 10SM CLR 14/08 A3040 RMK AO2 SLP294 T01390078 53010

Conditions at: KBKV observed 16 January 2018  13:53 UTC
Temperature: 10.6°C (51°F)
Dewpoint: 6.1°C (43°F) [RH = 74%]
Pressure (altimeter): 30.39 inches Hg (1029.2 mb)
[Sea-level pressure: 1029.0 mb]
Winds: from the NE (50 degrees) at 8 MPH (7 knots; 3.6 m/s)
Visibility: 10 or more miles (16+ km)
Ceiling: at least 12,000 feet AGL
Clouds: sky clear below 12,000 feet AGL
Present Weather: no significant weather observed at this time
KBKV 161353Z 05007KT 10SM CLR 11/06 A3039 RMK AO2 SLP290 T01060061

Conditions at: KBKV observed 16 January 2018  12:53 UTC
Temperature: 7.8°C (46°F)
Dewpoint: 5.0°C (41°F) [RH = 82%]
Pressure (altimeter): 30.38 inches Hg (1028.9 mb)
[Sea-level pressure: 1028.7 mb]
Winds: from the NE (40 degrees) at 7 MPH (6 knots; 3.1 m/s)
Visibility: 10 or more miles (16+ km)
Ceiling: at least 12,000 feet AGL
Clouds: sky clear below 12,000 feet AGL
Present Weather: no significant weather observed at this time
KBKV 161253Z 04006KT 10SM CLR 08/05 A3038 RMK AO2 SLP287 T00780050

Conditions at: KBKV observed 16 January 2018  11:53 UTC
Temperature: 6.7°C (44°F)
Dewpoint: 4.4°C (40°F) [RH = 85%]
Pressure (altimeter): 30.37 inches Hg (1028.5 mb)
[Sea-level pressure: 1028.4 mb]
Winds: from the NE (40 degrees) at 7 MPH (6 knots; 3.1 m/s)
Visibility: 10 or more miles (16+ km)
Ceiling: at least 12,000 feet AGL
Clouds: sky clear below 12,000 feet AGL
Present Weather: no significant weather observed at this time
KBKV 161153Z 04006KT 10SM CLR 07/04 A3037 RMK AO2 SLP284 T00670044 10067 20050 53006

Conditions at: KBKV observed 16 January 2018  10:53 UTC
Temperature: 6.1°C (43°F)
Dewpoint: 3.9°C (39°F) [RH = 86%]
Pressure (altimeter): 30.36 inches Hg (1028.2 mb)
[Sea-level pressure: 1028.0 mb]
Winds: from the NE (50 degrees) at 5 MPH (4 knots; 2.1 m/s)
Visibility: 10 or more miles (16+ km)
Ceiling: at least 12,000 feet AGL
Clouds: sky clear below 12,000 feet AGL
Present Weather: automated observation with no human augmentation;
there may or may not be significant weather present at this time
KBKV 161053Z AUTO 05004KT 10SM CLR 06/04 A3036 RMK AO2 SLP280 T00610039

Conditions at: KBKV observed 16 January 2018  09:53 UTC
Temperature: 6.1°C (43°F)
Dewpoint: 3.9°C (39°F) [RH = 86%]
Pressure (altimeter): 30.36 inches Hg (1028.2 mb)
[Sea-level pressure: 1027.9 mb]
Winds: from the NNE (30 degrees) at 6 MPH (5 knots; 2.6 m/s)
Visibility: 10 or more miles (16+ km)
Ceiling: 6000 feet AGL
Clouds: broken clouds at 6000 feet AGL
Present Weather: automated observation with no human augmentation;
there may or may not be significant weather present at this time
KBKV 160953Z AUTO 03005KT 10SM BKN060 06/04 A3036 RMK AO2 SLP279 T00610039

Conditions at: KBKV observed 16 January 2018  08:53 UTC
Temperature: 5.6°C (42°F)
Dewpoint: 3.3°C (38°F) [RH = 85%]
Pressure (altimeter): 30.36 inches Hg (1028.2 mb)
[Sea-level pressure: 1027.8 mb]
Winds: calm
Visibility: 10 or more miles (16+ km)
Ceiling: at least 12,000 feet AGL
Clouds: scattered clouds at 6000 feet AGL
Present Weather: automated observation with no human augmentation;
there may or may not be significant weather present at this time
KBKV 160853Z AUTO 00000KT 10SM SCT060 06/03 A3036 RMK AO2 SLP278 T00560033 56006

Conditions at: KBKV observed 16 January 2018  07:53 UTC
Temperature: 5.6°C (42°F)
Dewpoint: 2.8°C (37°F) [RH = 82%]
Pressure (altimeter): 30.36 inches Hg (1028.2 mb)
[Sea-level pressure: 1027.8 mb]
Winds: from the NNE (30 degrees) at 3 MPH (3 knots; 1.6 m/s)
Visibility: 10 or more miles (16+ km)
Ceiling: at least 12,000 feet AGL
Clouds: scattered clouds at 6000 feet AGL
Present Weather: automated observation with no human augmentation;
there may or may not be significant weather present at this time
KBKV 160753Z AUTO 03003KT 10SM SCT060 06/03 A3036 RMK AO2 SLP278 T00560028

Conditions at: KBKV observed 16 January 2018  06:53 UTC
Temperature: 5.6°C (42°F)
Dewpoint: 2.2°C (36°F) [RH = 79%]
Pressure (altimeter): 30.36 inches Hg (1028.2 mb)
[Sea-level pressure: 1028.1 mb]
Winds: from the NNE (30 degrees) at 5 MPH (4 knots; 2.1 m/s)
Visibility: 10 or more miles (16+ km)
Ceiling: at least 12,000 feet AGL
Clouds: few clouds at 6500 feet AGL
Present Weather: automated observation with no human augmentation;
there may or may not be significant weather present at this time
KBKV 160653Z AUTO 03004KT 10SM FEW065 06/02 A3036 RMK AO2 SLP281 T00560022

Conditions at: KBKV observed 16 January 2018  05:53 UTC
Temperature: 5.6°C (42°F)
Dewpoint: 2.2°C (36°F) [RH = 79%]
Pressure (altimeter): 30.37 inches Hg (1028.5 mb)
[Sea-level pressure: 1028.4 mb]
Winds: from the NNE (30 degrees) at 7 MPH (6 knots; 3.1 m/s)
Visibility: 10 or more miles (16+ km)
Ceiling: at least 12,000 feet AGL
Clouds: sky clear below 12,000 feet AGL
Present Weather: automated observation with no human augmentation;
there may or may not be significant weather present at this time
KBKV 160553Z AUTO 03006KT 10SM CLR 06/02 A3037 RMK AO2 SLP284 T00560022 10128 20056 58007

Conditions at: KBKV observed 16 January 2018  04:53 UTC
Temperature: 6.7°C (44°F)
Dewpoint: 2.2°C (36°F) [RH = 73%]
Pressure (altimeter): 30.39 inches Hg (1029.2 mb)
[Sea-level pressure: 1029.0 mb]
Winds: from the NE (40 degrees) at 8 MPH (7 knots; 3.6 m/s)
Visibility: 10 or more miles (16+ km)
Ceiling: at least 12,000 feet AGL
Clouds: sky clear below 12,000 feet AGL
Present Weather: automated observation with no human augmentation;
there may or may not be significant weather present at this time
KBKV 160453Z AUTO 04007KT 10SM CLR 07/02 A3039 RMK AO2 SLP290 T00670022 401940044

Conditions at: KBKV observed 16 January 2018  03:53 UTC
Temperature: 7.2°C (45°F)
Dewpoint: 2.8°C (37°F) [RH = 74%]
Pressure (altimeter): 30.40 inches Hg (1029.5 mb)
[Sea-level pressure: 1029.2 mb]
Winds: from the NE (40 degrees) at 8 MPH (7 knots; 3.6 m/s)
Visibility: 10 or more miles (16+ km)
Ceiling: at least 12,000 feet AGL
Clouds: sky clear below 12,000 feet AGL
Present Weather: automated observation with no human augmentation;
there may or may not be significant weather present at this time
KBKV 160353Z AUTO 04007KT 10SM CLR 07/03 A3040 RMK AO2 SLP292 T00720028

Conditions at: KBKV observed 16 January 2018  02:53 UTC
Temperature: 8.9°C (48°F)
Dewpoint: 2.2°C (36°F) [RH = 63%]
Pressure (altimeter): 30.39 inches Hg (1029.2 mb)
[Sea-level pressure: 1029.1 mb]
Winds: from the NE (40 degrees) at 8 MPH (7 knots; 3.6 m/s)
Visibility: 10 or more miles (16+ km)
Ceiling: at least 12,000 feet AGL
Clouds: sky clear below 12,000 feet AGL
Present Weather: no significant weather observed at this time
KBKV 160253Z 04007KT 10SM CLR 09/02 A3039 RMK AO2 SLP291 T00890022 51014

Conditions at: KBKV observed 16 January 2018  01:53 UTC
Temperature: 9.4°C (49°F)
Dewpoint: 2.8°C (37°F) [RH = 63%]
Pressure (altimeter): 30.39 inches Hg (1029.2 mb)
[Sea-level pressure: 1028.9 mb]
Winds: from the ENE (60 degrees) at 8 MPH (7 knots; 3.6 m/s)
Visibility: 10 or more miles (16+ km)
Ceiling: at least 12,000 feet AGL
Clouds: sky clear below 12,000 feet AGL
Present Weather: no significant weather observed at this time
KBKV 160153Z 06007KT 10SM CLR 09/03 A3039 RMK AO2 SLP289 T00940028

Conditions at: KBKV observed 16 January 2018  00:53 UTC
Temperature: 11.1°C (52°F)
Dewpoint: 3.3°C (38°F) [RH = 59%]
Pressure (altimeter): 30.37 inches Hg (1028.5 mb)
[Sea-level pressure: 1028.2 mb]
Winds: from the ENE (60 degrees) at 10 MPH (9 knots; 4.7 m/s)
Visibility: 10 or more miles (16+ km)
Ceiling: at least 12,000 feet AGL
Clouds: sky clear below 12,000 feet AGL
Present Weather: no significant weather observed at this time
KBKV 160053Z 06009KT 10SM CLR 11/03 A3037 RMK AO2 SLP282 T01110033

Conditions at: KBKV observed 15 January 2018  23:53 UTC
Temperature: 12.2°C (54°F)
Dewpoint: 5.0°C (41°F) [RH = 61%]
Pressure (altimeter): 30.35 inches Hg (1027.9 mb)
[Sea-level pressure: 1027.7 mb]
Winds: from the ENE (70 degrees) at 10 MPH (9 knots; 4.7 m/s)
Visibility: 10 or more miles (16+ km)
Ceiling: at least 12,000 feet AGL
Clouds: sky clear below 12,000 feet AGL
Present Weather: no significant weather observed at this time
KBKV 152353Z 07009KT 10SM CLR 12/05 A3035 RMK AO2 SLP277 T01220050 10194 20122 53015

Conditions at: KBKV observed 15 January 2018  22:53 UTC
Temperature: 15.0°C (59°F)
Dewpoint: 3.9°C (39°F) [RH = 47%]
Pressure (altimeter): 30.33 inches Hg (1027.2 mb)
[Sea-level pressure: 1026.9 mb]
Winds: from the NE (40 degrees) at 8 MPH (7 knots; 3.6 m/s)
Visibility: 10 or more miles (16+ km)
Ceiling: at least 12,000 feet AGL
Clouds: sky clear below 12,000 feet AGL
Present Weather: no significant weather observed at this time
KBKV 152253Z 04007KT 10SM CLR 15/04 A3033 RMK AO2 SLP269 T01500039